Aérodrome :
LOGIN :

S'inscrire | Disclaimer

   EN    FR    IT 

 










Légende :    VFR   VFR Marginal   IFR   IFR Intensif   IFR Très Intensif
Visi : 
Plafond : 
>= 8 km
>= 3000ft
5 à 8 km
1000 à 3000 ft
1500m à 5 km
500 à 1000 ft
800 à 1500m
200 à 500 ft
< 800m
< 200 ft
Symboles :   Orages  Brouillard  Fortes neiges  Fortes précipitations  Vent > 20 kt
SIGMETs :   Divers  Orages  Givrage  Turbulence  Onde Orograph.  Cendres Volcan.







- Altitude de l'aérodrome : 464 ft
- Code IATA : EVX
- Voir les cartes d'approche


LFOE - Evreux

DERNIER METAR :
  • 222130Z AUTO 09004KT 9000 RA SCT020/// OVC028/// ///TCU 06/06 Q1008

METARs EXPIRÉS :
  • 222100Z AUTO 10003KT 6000 -RA OVC027/// ///CB 06/06 Q1009
  • 222030Z AUTO 12003KT 8000 -RA BKN026/// BKN033/// OVC049/// ///TCU 06/06 Q1008
  • 222000Z AUTO 14003KT 5000 RA BR FEW008/// OVC029/// ///TCU 07/06 Q1008
  • 221930Z AUTO 12004KT 9999 -RA SCT009/// BKN034/// OVC052/// ///TCU 07/06 Q1008
  • 221900Z AUTO 13003KT 9999 -RA BKN008 BKN019 OVC039 07/06 Q1008

TAF TAF LFOE
Valide du 22 à 21h jusqu'au 23 à 21h UTC


222000Z 2221/2321 10008KT 8000 -RA SCT010 BKN030
TEMPO 2221/2301 16015G25KT 3000 SHRA SCT010 BKN025TCU
PROB30
TEMPO 2221/2301 16020G30KT 2000 SHRA SCT005 BKN020CB
TEMPO 2309/2318 3000 RA BKN010
BECMG 2316/2318 VRB03KT
BECMG 2318/2321 3000 BR NSC
Pas de NOTAMs connus pour ce terrain.



MET'MAP, la Météo Aéronautique d'un coup d'oeil ! - Copyright ORBIFLY Décembre 2007 - Disclaimer

ORBIFLY MET'MAP TEAM :

Programmation & Développement : Alexandra Zaïnal
Conception & Développement : Baudouin d'Aumeries
Co-Programmation & Développement : Marc-Olivier Méhu
Soutien technique & logistique : Manuel Goepfert

Contact : metmap@orbifly.com




SOURCES & CREDITS :

   NOAA